Morton, Wyoming
Current Conditions -  °F | °C
As of 1:53 PM on Saturday 22 Nov 2014 (Local Time) from KRIW Reporting Station
Clear Clear  
Wind Chill: 39°   Ceiling: Unl
Heat Index: 44°   Visibility: 10mi
Dew Point: 27°   Wind: 9mph
Humidity: 51%   Direction: 200°SSW
Pressure: 29.53"   Gusts: NA
Location:  43.1005°N, 108.934°W
Report Text: KRIW 222053Z AUTO 20008KT 10SM CLR 07/M03 A2953 RMK AO2 SLP003 T00671028 56024
Loading
Personal Weather Stations






























Interactive Weather Map New forecast layout! Learn more

10-Day Weather Forecast

Advertisements
Track Severe Weather on mobile